Aérodrome :
LOGIN :

S'inscrire | Disclaimer

   EN    FR    IT 

 










Légende :    VFR   VFR Marginal   IFR   IFR Intensif   IFR Très Intensif
Visi : 
Plafond : 
>= 8 km
>= 3000ft
5 à 8 km
1000 à 3000 ft
1500m à 5 km
500 à 1000 ft
800 à 1500m
200 à 500 ft
< 800m
< 200 ft
Symboles :   Orages  Brouillard  Fortes neiges  Fortes précipitations  Vent > 20 kt
SIGMETs :   Divers  Orages  Givrage  Turbulence  Onde Orograph.  Cendres Volcan.







- Altitude de l'aérodrome : 219 ft
- Code IATA : DNR
- Voir les cartes d'approche


LFRD - Dinard

DERNIER METAR :
  • 261930Z AUTO 00000KT 9999 FEW007 SCT030 BKN038 14/13 Q1016 TEMPO 3000 RA BKN005 BECMG 32010KT

METARs EXPIRÉS :
  • 261900Z AUTO VRB02KT 9999 SCT011 BKN016 BKN027 14/13 Q1016 TEMPO 3000 RA BKN005
  • 261830Z AUTO VRB02KT 9000 SCT014 BKN020 BKN027 15/13 Q1017 TEMPO 3000 RA BKN005
  • 261800Z AUTO VRB03KT 9999 BKN018 OVC024 15/13 Q1017 TEMPO 3000 RA BKN005
  • 261730Z AUTO 01007KT 9999 BKN020 OVC029 15/13 Q1017 TEMPO 3000 RA BKN005
  • 261700Z AUTO 23005KT 9999 FEW021 BKN029 BKN034 17/13 Q1017 TEMPO 3000 RA BKN005 BECMG 32010KT

TAF TAF LFRD
Valide du 26 à 18h jusqu'au 27 à 18h UTC


261700Z 2618/2718 32010KT 9999 BKN015
TEMPO 2618/2623 3000 RA BKN005
BECMG 2622/2624 SCT030
TEMPO 2700/2706 BKN008
BECMG 2712/2714 30015G25KT
ATIS : +33 2 99 16 81 50
Pas de NOTAMs connus pour ce terrain.



MET'MAP, la Météo Aéronautique d'un coup d'oeil ! - Copyright ORBIFLY Décembre 2007 - Disclaimer

ORBIFLY MET'MAP TEAM :

Programmation & Développement : Alexandra Zaïnal
Conception & Développement : Baudouin d'Aumeries
Co-Programmation & Développement : Marc-Olivier Méhu
Soutien technique & logistique : Manuel Goepfert

Contact : metmap@orbifly.com




SOURCES & CREDITS :

   NOAA